El Corrillo, Spain
Current Conditions -  °F | °C
As of 1:00 PM on Friday 19 Dec 2014 (Local Time) from LEBB Reporting Station
Broken Clouds Broken Clouds  
Wind Chill: 55°   Ceiling: 3300
Heat Index: 55°   Visibility: 6mi
Dew Point: 43°   Wind: 3mph
Humidity: 63%   Direction: 260°W
Pressure: 30.5"   Gusts: NA
Location:  43.23°N, 3.13°W
Report Text: LEBB 191200Z 26003KT 200V300 9999 BKN033 13/06 Q1033 NOSIG
Loading
Personal Weather Stations






























Interactive Weather Map New forecast layout! Learn more

10-Day Weather Forecast

Advertisements
Track Severe Weather on mobile